sensor_id;sensor_type;location;lat;lon;timestamp;P1;durP1;ratioP1;P2;durP2;ratioP2
50066;SDS011;35952;52.524;13.340;2024-03-07T00:00:18;87.57;;;39.47;;
50066;SDS011;35952;52.524;13.340;2024-03-07T00:02:53;88.60;;;39.90;;
50066;SDS011;35952;52.524;13.340;2024-03-07T00:05:24;89.87;;;38.73;;
50066;SDS011;35952;52.524;13.340;2024-03-07T00:07:55;88.97;;;40.63;;
50066;SDS011;35952;52.524;13.340;2024-03-07T00:10:30;92.97;;;41.87;;
50066;SDS011;35952;52.524;13.340;2024-03-07T00:13:03;100.47;;;42.13;;
50066;SDS011;35952;52.524;13.340;2024-03-07T00:15:34;94.90;;;39.40;;
50066;SDS011;35952;52.524;13.340;2024-03-07T00:17:59;95.07;;;43.97;;
50066;SDS011;35952;52.524;13.340;2024-03-07T00:20:25;91.67;;;41.13;;
50066;SDS011;35952;52.524;13.340;2024-03-07T00:22:51;96.97;;;38.90;;
50066;SDS011;35952;52.524;13.340;2024-03-07T00:25:16;95.50;;;40.47;;
50066;SDS011;35952;52.524;13.340;2024-03-07T00:27:44;106.17;;;40.27;;
50066;SDS011;35952;52.524;13.340;2024-03-07T00:30:10;91.37;;;38.17;;
50066;SDS011;35952;52.524;13.340;2024-03-07T00:32:38;90.20;;;39.10;;
50066;SDS011;35952;52.524;13.340;2024-03-07T00:35:04;95.03;;;40.47;;
50066;SDS011;35952;52.524;13.340;2024-03-07T00:37:36;91.10;;;37.57;;
50066;SDS011;35952;52.524;13.340;2024-03-07T00:40:02;100.30;;;42.87;;
50066;SDS011;35952;52.524;13.340;2024-03-07T00:42:28;84.97;;;39.03;;
50066;SDS011;35952;52.524;13.340;2024-03-07T00:44:54;87.10;;;40.17;;
50066;SDS011;35952;52.524;13.340;2024-03-07T00:47:25;96.33;;;39.60;;
50066;SDS011;35952;52.524;13.340;2024-03-07T00:49:51;97.23;;;41.53;;
50066;SDS011;35952;52.524;13.340;2024-03-07T00:52:16;78.03;;;38.50;;
50066;SDS011;35952;52.524;13.340;2024-03-07T00:54:42;86.37;;;37.50;;
50066;SDS011;35952;52.524;13.340;2024-03-07T00:57:07;90.13;;;40.43;;
50066;SDS011;35952;52.524;13.340;2024-03-07T00:59:33;98.50;;;40.77;;
50066;SDS011;35952;52.524;13.340;2024-03-07T01:01:59;92.83;;;39.13;;
50066;SDS011;35952;52.524;13.340;2024-03-07T01:04:25;95.07;;;38.53;;
50066;SDS011;35952;52.524;13.340;2024-03-07T01:06:55;90.83;;;37.77;;
50066;SDS011;35952;52.524;13.340;2024-03-07T01:09:22;88.33;;;38.17;;
50066;SDS011;35952;52.524;13.340;2024-03-07T01:11:48;83.30;;;36.47;;
50066;SDS011;35952;52.524;13.340;2024-03-07T01:14:14;94.20;;;38.63;;
50066;SDS011;35952;52.524;13.340;2024-03-07T01:16:40;89.73;;;38.40;;
50066;SDS011;35952;52.524;13.340;2024-03-07T01:19:06;84.37;;;38.10;;
50066;SDS011;35952;52.524;13.340;2024-03-07T01:21:32;88.93;;;39.17;;
50066;SDS011;35952;52.524;13.340;2024-03-07T01:23:58;84.37;;;36.93;;
50066;SDS011;35952;52.524;13.340;2024-03-07T01:26:25;85.20;;;38.73;;
50066;SDS011;35952;52.524;13.340;2024-03-07T01:28:52;96.13;;;38.40;;
50066;SDS011;35952;52.524;13.340;2024-03-07T01:31:19;83.07;;;37.10;;
50066;SDS011;35952;52.524;13.340;2024-03-07T01:33:45;71.93;;;38.33;;
50066;SDS011;35952;52.524;13.340;2024-03-07T01:36:11;80.53;;;36.27;;
50066;SDS011;35952;52.524;13.340;2024-03-07T01:38:36;84.93;;;36.30;;
50066;SDS011;35952;52.524;13.340;2024-03-07T01:41:02;74.70;;;36.17;;
50066;SDS011;35952;52.524;13.340;2024-03-07T01:43:28;88.37;;;37.30;;
50066;SDS011;35952;52.524;13.340;2024-03-07T01:45:56;96.13;;;38.77;;
50066;SDS011;35952;52.524;13.340;2024-03-07T01:48:26;76.67;;;37.60;;
50066;SDS011;35952;52.524;13.340;2024-03-07T01:50:53;75.33;;;39.23;;
50066;SDS011;35952;52.524;13.340;2024-03-07T01:53:20;97.00;;;39.00;;
50066;SDS011;35952;52.524;13.340;2024-03-07T01:55:47;79.00;;;38.83;;
50066;SDS011;35952;52.524;13.340;2024-03-07T01:58:13;86.73;;;37.97;;
50066;SDS011;35952;52.524;13.340;2024-03-07T02:00:43;79.70;;;37.40;;
50066;SDS011;35952;52.524;13.340;2024-03-07T02:03:09;79.47;;;37.00;;
50066;SDS011;35952;52.524;13.340;2024-03-07T02:05:35;89.03;;;39.27;;
50066;SDS011;35952;52.524;13.340;2024-03-07T02:08:01;88.47;;;38.20;;
50066;SDS011;35952;52.524;13.340;2024-03-07T02:10:29;74.20;;;36.83;;
50066;SDS011;35952;52.524;13.340;2024-03-07T02:12:55;67.80;;;34.53;;
50066;SDS011;35952;52.524;13.340;2024-03-07T02:15:20;77.87;;;37.80;;
50066;SDS011;35952;52.524;13.340;2024-03-07T02:17:46;77.90;;;37.87;;
50066;SDS011;35952;52.524;13.340;2024-03-07T02:20:12;76.53;;;37.30;;
50066;SDS011;35952;52.524;13.340;2024-03-07T02:22:38;94.33;;;37.80;;
50066;SDS011;35952;52.524;13.340;2024-03-07T02:25:04;81.50;;;36.90;;
50066;SDS011;35952;52.524;13.340;2024-03-07T02:27:31;72.23;;;40.07;;
50066;SDS011;35952;52.524;13.340;2024-03-07T02:29:56;96.43;;;41.33;;
50066;SDS011;35952;52.524;13.340;2024-03-07T02:32:22;95.93;;;39.00;;
50066;SDS011;35952;52.524;13.340;2024-03-07T02:34:48;75.73;;;38.53;;
50066;SDS011;35952;52.524;13.340;2024-03-07T02:37:13;80.57;;;37.33;;
50066;SDS011;35952;52.524;13.340;2024-03-07T02:39:39;73.53;;;37.93;;
50066;SDS011;35952;52.524;13.340;2024-03-07T02:42:05;83.60;;;39.33;;
50066;SDS011;35952;52.524;13.340;2024-03-07T02:44:31;81.03;;;38.93;;
50066;SDS011;35952;52.524;13.340;2024-03-07T02:46:57;92.20;;;37.77;;
50066;SDS011;35952;52.524;13.340;2024-03-07T02:49:23;88.70;;;39.13;;
50066;SDS011;35952;52.524;13.340;2024-03-07T02:51:48;85.67;;;39.20;;
50066;SDS011;35952;52.524;13.340;2024-03-07T02:54:16;76.37;;;38.37;;
50066;SDS011;35952;52.524;13.340;2024-03-07T02:56:43;87.93;;;37.37;;
50066;SDS011;35952;52.524;13.340;2024-03-07T02:59:08;79.23;;;37.03;;
50066;SDS011;35952;52.524;13.340;2024-03-07T03:01:34;80.47;;;40.87;;
50066;SDS011;35952;52.524;13.340;2024-03-07T03:04:00;71.87;;;39.47;;
50066;SDS011;35952;52.524;13.340;2024-03-07T03:06:25;82.23;;;39.20;;
50066;SDS011;35952;52.524;13.340;2024-03-07T03:08:51;78.33;;;39.03;;
50066;SDS011;35952;52.524;13.340;2024-03-07T03:11:19;81.63;;;38.57;;
50066;SDS011;35952;52.524;13.340;2024-03-07T03:13:45;87.27;;;40.00;;
50066;SDS011;35952;52.524;13.340;2024-03-07T03:16:12;88.57;;;41.30;;
50066;SDS011;35952;52.524;13.340;2024-03-07T03:18:38;82.30;;;39.93;;
50066;SDS011;35952;52.524;13.340;2024-03-07T03:21:04;98.13;;;44.50;;
50066;SDS011;35952;52.524;13.340;2024-03-07T03:23:29;95.47;;;40.33;;
50066;SDS011;35952;52.524;13.340;2024-03-07T03:25:55;84.90;;;38.53;;
50066;SDS011;35952;52.524;13.340;2024-03-07T03:28:22;102.23;;;41.93;;
50066;SDS011;35952;52.524;13.340;2024-03-07T03:30:48;90.10;;;41.57;;
50066;SDS011;35952;52.524;13.340;2024-03-07T03:33:15;83.30;;;38.93;;
50066;SDS011;35952;52.524;13.340;2024-03-07T03:35:41;79.70;;;41.10;;
50066;SDS011;35952;52.524;13.340;2024-03-07T03:38:07;95.37;;;41.83;;
50066;SDS011;35952;52.524;13.340;2024-03-07T03:40:33;80.33;;;41.93;;
50066;SDS011;35952;52.524;13.340;2024-03-07T03:42:59;81.60;;;41.70;;
50066;SDS011;35952;52.524;13.340;2024-03-07T03:45:25;88.90;;;40.30;;
50066;SDS011;35952;52.524;13.340;2024-03-07T03:47:51;93.33;;;43.10;;
50066;SDS011;35952;52.524;13.340;2024-03-07T03:50:17;79.60;;;42.70;;
50066;SDS011;35952;52.524;13.340;2024-03-07T03:52:43;69.10;;;37.57;;
50066;SDS011;35952;52.524;13.340;2024-03-07T03:55:09;95.33;;;41.90;;
50066;SDS011;35952;52.524;13.340;2024-03-07T03:57:35;86.80;;;39.63;;
50066;SDS011;35952;52.524;13.340;2024-03-07T04:00:02;108.23;;;44.30;;
50066;SDS011;35952;52.524;13.340;2024-03-07T04:02:35;74.50;;;38.87;;
50066;SDS011;35952;52.524;13.340;2024-03-07T04:05:02;74.83;;;39.27;;
50066;SDS011;35952;52.524;13.340;2024-03-07T04:07:28;72.73;;;39.40;;
50066;SDS011;35952;52.524;13.340;2024-03-07T04:09:56;74.73;;;39.27;;
50066;SDS011;35952;52.524;13.340;2024-03-07T04:12:23;92.07;;;42.07;;
50066;SDS011;35952;52.524;13.340;2024-03-07T04:14:50;66.13;;;39.50;;
50066;SDS011;35952;52.524;13.340;2024-03-07T04:17:16;84.67;;;38.07;;
50066;SDS011;35952;52.524;13.340;2024-03-07T04:19:41;79.10;;;40.27;;
50066;SDS011;35952;52.524;13.340;2024-03-07T04:22:08;88.50;;;40.73;;
50066;SDS011;35952;52.524;13.340;2024-03-07T04:24:34;80.77;;;37.87;;
50066;SDS011;35952;52.524;13.340;2024-03-07T04:27:01;76.07;;;38.87;;
50066;SDS011;35952;52.524;13.340;2024-03-07T04:29:29;79.30;;;37.97;;
50066;SDS011;35952;52.524;13.340;2024-03-07T04:31:55;75.80;;;39.27;;
50066;SDS011;35952;52.524;13.340;2024-03-07T04:34:21;75.70;;;37.10;;
50066;SDS011;35952;52.524;13.340;2024-03-07T04:36:47;79.63;;;36.43;;
50066;SDS011;35952;52.524;13.340;2024-03-07T04:39:12;69.73;;;36.97;;
50066;SDS011;35952;52.524;13.340;2024-03-07T04:41:57;71.97;;;36.00;;
50066;SDS011;35952;52.524;13.340;2024-03-07T04:44:25;69.10;;;34.80;;
50066;SDS011;35952;52.524;13.340;2024-03-07T04:46:50;68.50;;;36.00;;
50066;SDS011;35952;52.524;13.340;2024-03-07T04:49:21;70.63;;;36.50;;
50066;SDS011;35952;52.524;13.340;2024-03-07T04:51:48;66.53;;;34.87;;
50066;SDS011;35952;52.524;13.340;2024-03-07T04:54:15;63.80;;;34.70;;
50066;SDS011;35952;52.524;13.340;2024-03-07T04:56:41;72.13;;;34.83;;
50066;SDS011;35952;52.524;13.340;2024-03-07T04:59:06;64.77;;;35.43;;
50066;SDS011;35952;52.524;13.340;2024-03-07T05:01:32;57.70;;;34.10;;
50066;SDS011;35952;52.524;13.340;2024-03-07T05:03:57;60.60;;;34.93;;
50066;SDS011;35952;52.524;13.340;2024-03-07T05:06:23;54.73;;;33.60;;
50066;SDS011;35952;52.524;13.340;2024-03-07T05:08:48;60.93;;;36.50;;
50066;SDS011;35952;52.524;13.340;2024-03-07T05:11:14;68.13;;;36.30;;
50066;SDS011;35952;52.524;13.340;2024-03-07T05:13:40;67.30;;;37.23;;
50066;SDS011;35952;52.524;13.340;2024-03-07T05:16:07;59.97;;;33.07;;
50066;SDS011;35952;52.524;13.340;2024-03-07T05:18:33;61.73;;;33.70;;
50066;SDS011;35952;52.524;13.340;2024-03-07T05:20:58;56.10;;;33.37;;
50066;SDS011;35952;52.524;13.340;2024-03-07T05:23:44;60.03;;;33.90;;
50066;SDS011;35952;52.524;13.340;2024-03-07T05:26:09;53.83;;;32.50;;
50066;SDS011;35952;52.524;13.340;2024-03-07T05:28:35;68.57;;;36.03;;
50066;SDS011;35952;52.524;13.340;2024-03-07T05:31:01;69.33;;;35.47;;
50066;SDS011;35952;52.524;13.340;2024-03-07T05:33:29;61.07;;;34.93;;
50066;SDS011;35952;52.524;13.340;2024-03-07T05:35:54;63.73;;;34.80;;
50066;SDS011;35952;52.524;13.340;2024-03-07T05:38:27;61.50;;;34.50;;
50066;SDS011;35952;52.524;13.340;2024-03-07T05:40:53;60.20;;;33.90;;
50066;SDS011;35952;52.524;13.340;2024-03-07T05:43:19;62.27;;;35.80;;
50066;SDS011;35952;52.524;13.340;2024-03-07T05:45:44;56.63;;;33.50;;
50066;SDS011;35952;52.524;13.340;2024-03-07T05:48:14;54.77;;;32.87;;
50066;SDS011;35952;52.524;13.340;2024-03-07T05:50:41;62.00;;;37.00;;
50066;SDS011;35952;52.524;13.340;2024-03-07T05:53:07;72.57;;;38.00;;
50066;SDS011;35952;52.524;13.340;2024-03-07T05:55:33;58.97;;;31.77;;
50066;SDS011;35952;52.524;13.340;2024-03-07T05:57:59;59.70;;;32.80;;
50066;SDS011;35952;52.524;13.340;2024-03-07T06:00:24;54.27;;;30.60;;
50066;SDS011;35952;52.524;13.340;2024-03-07T06:02:52;56.57;;;31.23;;
50066;SDS011;35952;52.524;13.340;2024-03-07T06:05:18;53.50;;;33.23;;
50066;SDS011;35952;52.524;13.340;2024-03-07T06:07:44;56.97;;;31.60;;
50066;SDS011;35952;52.524;13.340;2024-03-07T06:10:14;52.47;;;30.67;;
50066;SDS011;35952;52.524;13.340;2024-03-07T06:12:41;51.93;;;31.33;;
50066;SDS011;35952;52.524;13.340;2024-03-07T06:15:10;47.37;;;30.50;;
50066;SDS011;35952;52.524;13.340;2024-03-07T06:17:36;51.13;;;31.10;;
50066;SDS011;35952;52.524;13.340;2024-03-07T06:20:01;62.80;;;31.93;;
50066;SDS011;35952;52.524;13.340;2024-03-07T06:22:28;54.87;;;31.10;;
50066;SDS011;35952;52.524;13.340;2024-03-07T06:24:54;51.70;;;31.80;;
50066;SDS011;35952;52.524;13.340;2024-03-07T06:27:20;59.30;;;32.17;;
50066;SDS011;35952;52.524;13.340;2024-03-07T06:29:52;61.23;;;33.47;;
50066;SDS011;35952;52.524;13.340;2024-03-07T06:32:18;55.50;;;31.03;;
50066;SDS011;35952;52.524;13.340;2024-03-07T06:34:43;53.30;;;29.40;;
50066;SDS011;35952;52.524;13.340;2024-03-07T06:37:09;48.43;;;28.63;;
50066;SDS011;35952;52.524;13.340;2024-03-07T06:39:34;49.30;;;29.77;;
50066;SDS011;35952;52.524;13.340;2024-03-07T06:42:00;51.13;;;27.70;;
50066;SDS011;35952;52.524;13.340;2024-03-07T06:44:25;60.10;;;33.93;;
50066;SDS011;35952;52.524;13.340;2024-03-07T06:46:51;43.67;;;28.13;;
50066;SDS011;35952;52.524;13.340;2024-03-07T06:49:17;52.97;;;30.43;;
50066;SDS011;35952;52.524;13.340;2024-03-07T06:51:43;41.30;;;27.67;;
50066;SDS011;35952;52.524;13.340;2024-03-07T06:54:09;55.67;;;27.53;;
50066;SDS011;35952;52.524;13.340;2024-03-07T06:56:35;46.73;;;27.17;;
50066;SDS011;35952;52.524;13.340;2024-03-07T06:59:01;51.33;;;26.83;;
50066;SDS011;35952;52.524;13.340;2024-03-07T07:01:30;45.03;;;28.47;;
50066;SDS011;35952;52.524;13.340;2024-03-07T07:03:55;43.50;;;27.00;;
50066;SDS011;35952;52.524;13.340;2024-03-07T07:06:23;41.80;;;25.30;;
50066;SDS011;35952;52.524;13.340;2024-03-07T07:08:49;35.07;;;23.37;;
50066;SDS011;35952;52.524;13.340;2024-03-07T07:11:14;41.50;;;23.50;;
50066;SDS011;35952;52.524;13.340;2024-03-07T07:13:40;40.83;;;23.70;;
50066;SDS011;35952;52.524;13.340;2024-03-07T07:16:07;40.40;;;25.67;;
50066;SDS011;35952;52.524;13.340;2024-03-07T07:18:33;39.87;;;23.03;;
50066;SDS011;35952;52.524;13.340;2024-03-07T07:21:00;34.50;;;22.50;;
50066;SDS011;35952;52.524;13.340;2024-03-07T07:23:28;38.83;;;22.87;;
50066;SDS011;35952;52.524;13.340;2024-03-07T07:25:53;31.23;;;22.03;;
50066;SDS011;35952;52.524;13.340;2024-03-07T07:28:18;45.20;;;22.60;;
50066;SDS011;35952;52.524;13.340;2024-03-07T07:30:44;39.77;;;25.10;;
50066;SDS011;35952;52.524;13.340;2024-03-07T07:33:11;40.17;;;24.23;;
50066;SDS011;35952;52.524;13.340;2024-03-07T07:35:36;41.33;;;23.47;;
50066;SDS011;35952;52.524;13.340;2024-03-07T07:38:02;39.90;;;22.40;;
50066;SDS011;35952;52.524;13.340;2024-03-07T07:40:28;34.90;;;23.20;;
50066;SDS011;35952;52.524;13.340;2024-03-07T07:42:56;38.13;;;24.03;;
50066;SDS011;35952;52.524;13.340;2024-03-07T07:45:22;30.57;;;20.63;;
50066;SDS011;35952;52.524;13.340;2024-03-07T07:47:51;38.27;;;23.20;;
50066;SDS011;35952;52.524;13.340;2024-03-07T07:50:19;38.70;;;22.17;;
50066;SDS011;35952;52.524;13.340;2024-03-07T07:52:52;33.10;;;21.13;;
50066;SDS011;35952;52.524;13.340;2024-03-07T07:55:22;32.37;;;23.23;;
50066;SDS011;35952;52.524;13.340;2024-03-07T07:57:58;35.40;;;21.63;;
50066;SDS011;35952;52.524;13.340;2024-03-07T08:00:25;32.87;;;20.37;;
50066;SDS011;35952;52.524;13.340;2024-03-07T08:02:57;32.40;;;20.40;;
50066;SDS011;35952;52.524;13.340;2024-03-07T08:05:23;30.40;;;19.23;;
50066;SDS011;35952;52.524;13.340;2024-03-07T08:07:50;33.33;;;17.40;;
50066;SDS011;35952;52.524;13.340;2024-03-07T08:10:17;30.03;;;19.27;;
50066;SDS011;35952;52.524;13.340;2024-03-07T08:12:44;26.83;;;17.63;;
50066;SDS011;35952;52.524;13.340;2024-03-07T08:15:12;30.70;;;19.13;;
50066;SDS011;35952;52.524;13.340;2024-03-07T08:17:42;27.60;;;18.97;;
50066;SDS011;35952;52.524;13.340;2024-03-07T08:20:12;27.60;;;19.77;;
50066;SDS011;35952;52.524;13.340;2024-03-07T08:22:39;24.63;;;18.93;;
50066;SDS011;35952;52.524;13.340;2024-03-07T08:25:09;26.77;;;17.67;;
50066;SDS011;35952;52.524;13.340;2024-03-07T08:27:55;25.33;;;17.60;;
50066;SDS011;35952;52.524;13.340;2024-03-07T08:30:23;27.67;;;17.40;;
50066;SDS011;35952;52.524;13.340;2024-03-07T08:32:50;24.83;;;17.90;;
50066;SDS011;35952;52.524;13.340;2024-03-07T08:35:17;24.23;;;19.00;;
50066;SDS011;35952;52.524;13.340;2024-03-07T08:37:44;27.13;;;17.97;;
50066;SDS011;35952;52.524;13.340;2024-03-07T08:40:11;28.77;;;19.80;;
50066;SDS011;35952;52.524;13.340;2024-03-07T08:42:47;27.30;;;20.30;;
50066;SDS011;35952;52.524;13.340;2024-03-07T08:45:15;31.47;;;20.60;;
50066;SDS011;35952;52.524;13.340;2024-03-07T08:47:43;25.20;;;17.40;;
50066;SDS011;35952;52.524;13.340;2024-03-07T08:50:10;26.97;;;18.23;;
50066;SDS011;35952;52.524;13.340;2024-03-07T08:52:35;22.97;;;16.77;;
50066;SDS011;35952;52.524;13.340;2024-03-07T08:55:05;30.53;;;19.00;;
50066;SDS011;35952;52.524;13.340;2024-03-07T08:57:34;25.60;;;18.30;;
50066;SDS011;35952;52.524;13.340;2024-03-07T09:00:01;30.90;;;18.40;;
50066;SDS011;35952;52.524;13.340;2024-03-07T09:02:34;25.97;;;18.33;;
50066;SDS011;35952;52.524;13.340;2024-03-07T09:05:01;24.83;;;18.27;;
50066;SDS011;35952;52.524;13.340;2024-03-07T09:07:27;21.50;;;16.83;;
50066;SDS011;35952;52.524;13.340;2024-03-07T09:09:54;26.83;;;17.40;;
50066;SDS011;35952;52.524;13.340;2024-03-07T09:12:20;19.53;;;15.63;;
50066;SDS011;35952;52.524;13.340;2024-03-07T09:14:45;24.13;;;15.17;;
50066;SDS011;35952;52.524;13.340;2024-03-07T09:17:11;22.53;;;16.20;;
50066;SDS011;35952;52.524;13.340;2024-03-07T09:19:38;22.47;;;16.27;;
50066;SDS011;35952;52.524;13.340;2024-03-07T09:22:04;25.40;;;16.67;;
50066;SDS011;35952;52.524;13.340;2024-03-07T09:24:30;23.83;;;17.00;;
50066;SDS011;35952;52.524;13.340;2024-03-07T09:26:56;25.00;;;17.13;;
50066;SDS011;35952;52.524;13.340;2024-03-07T09:29:22;26.70;;;16.00;;
50066;SDS011;35952;52.524;13.340;2024-03-07T09:31:51;20.40;;;14.77;;
50066;SDS011;35952;52.524;13.340;2024-03-07T09:34:18;21.27;;;15.70;;
50066;SDS011;35952;52.524;13.340;2024-03-07T09:36:45;23.73;;;14.87;;
50066;SDS011;35952;52.524;13.340;2024-03-07T09:39:11;19.53;;;15.43;;
50066;SDS011;35952;52.524;13.340;2024-03-07T09:41:37;26.80;;;16.40;;
50066;SDS011;35952;52.524;13.340;2024-03-07T09:44:04;30.53;;;16.47;;
50066;SDS011;35952;52.524;13.340;2024-03-07T09:46:30;25.30;;;15.63;;
50066;SDS011;35952;52.524;13.340;2024-03-07T09:48:56;21.07;;;15.37;;
50066;SDS011;35952;52.524;13.340;2024-03-07T09:51:23;18.60;;;13.30;;
50066;SDS011;35952;52.524;13.340;2024-03-07T09:53:50;19.57;;;13.53;;
50066;SDS011;35952;52.524;13.340;2024-03-07T09:56:20;21.33;;;13.90;;
50066;SDS011;35952;52.524;13.340;2024-03-07T09:58:50;20.90;;;14.17;;
50066;SDS011;35952;52.524;13.340;2024-03-07T10:01:18;18.40;;;13.77;;
50066;SDS011;35952;52.524;13.340;2024-03-07T10:03:46;21.40;;;15.50;;
50066;SDS011;35952;52.524;13.340;2024-03-07T10:06:13;19.27;;;14.13;;
50066;SDS011;35952;52.524;13.340;2024-03-07T10:08:40;21.33;;;15.67;;
50066;SDS011;35952;52.524;13.340;2024-03-07T10:11:07;17.50;;;13.20;;
50066;SDS011;35952;52.524;13.340;2024-03-07T10:13:35;28.53;;;14.10;;
50066;SDS011;35952;52.524;13.340;2024-03-07T10:16:01;23.83;;;15.10;;
50066;SDS011;35952;52.524;13.340;2024-03-07T10:18:29;18.33;;;13.40;;
50066;SDS011;35952;52.524;13.340;2024-03-07T10:20:56;20.67;;;14.00;;
50066;SDS011;35952;52.524;13.340;2024-03-07T10:23:22;23.27;;;15.03;;
50066;SDS011;35952;52.524;13.340;2024-03-07T10:25:48;22.60;;;14.67;;
50066;SDS011;35952;52.524;13.340;2024-03-07T10:28:18;20.20;;;14.20;;
50066;SDS011;35952;52.524;13.340;2024-03-07T10:30:45;19.07;;;12.33;;
50066;SDS011;35952;52.524;13.340;2024-03-07T10:33:13;22.50;;;15.07;;
50066;SDS011;35952;52.524;13.340;2024-03-07T10:35:38;17.27;;;13.07;;
50066;SDS011;35952;52.524;13.340;2024-03-07T10:38:04;32.83;;;13.20;;
50066;SDS011;35952;52.524;13.340;2024-03-07T10:40:36;18.20;;;12.80;;
50066;SDS011;35952;52.524;13.340;2024-03-07T10:43:05;24.33;;;12.30;;
50066;SDS011;35952;52.524;13.340;2024-03-07T10:45:35;20.30;;;13.10;;
50066;SDS011;35952;52.524;13.340;2024-03-07T10:48:14;20.40;;;13.10;;
50066;SDS011;35952;52.524;13.340;2024-03-07T10:56:07;19.77;;;13.93;;
50066;SDS011;35952;52.524;13.340;2024-03-07T10:58:42;18.03;;;11.87;;
50066;SDS011;35952;52.524;13.340;2024-03-07T11:01:32;19.93;;;13.47;;
50066;SDS011;35952;52.524;13.340;2024-03-07T11:04:00;16.37;;;13.27;;
50066;SDS011;35952;52.524;13.340;2024-03-07T11:06:30;18.53;;;12.47;;
50066;SDS011;35952;52.524;13.340;2024-03-07T11:08:59;16.13;;;12.57;;
50066;SDS011;35952;52.524;13.340;2024-03-07T11:11:25;13.87;;;11.23;;
50066;SDS011;35952;52.524;13.340;2024-03-07T11:13:53;21.60;;;13.10;;
50066;SDS011;35952;52.524;13.340;2024-03-07T11:16:19;16.07;;;12.33;;
50066;SDS011;35952;52.524;13.340;2024-03-07T11:21:56;17.23;;;13.43;;
50066;SDS011;35952;52.524;13.340;2024-03-07T11:24:26;18.53;;;13.30;;
50066;SDS011;35952;52.524;13.340;2024-03-07T11:27:02;17.40;;;12.90;;
50066;SDS011;35952;52.524;13.340;2024-03-07T11:29:43;15.90;;;12.10;;
50066;SDS011;35952;52.524;13.340;2024-03-07T11:32:15;15.10;;;12.37;;
50066;SDS011;35952;52.524;13.340;2024-03-07T11:34:41;17.03;;;12.90;;
50066;SDS011;35952;52.524;13.340;2024-03-07T11:37:16;19.20;;;13.70;;
50066;SDS011;35952;52.524;13.340;2024-03-07T11:39:43;15.87;;;12.93;;
50066;SDS011;35952;52.524;13.340;2024-03-07T11:42:28;20.40;;;14.10;;
50066;SDS011;35952;52.524;13.340;2024-03-07T11:45:00;18.57;;;13.93;;
50066;SDS011;35952;52.524;13.340;2024-03-07T11:47:38;18.23;;;13.17;;
50066;SDS011;35952;52.524;13.340;2024-03-07T11:50:04;19.73;;;14.67;;
50066;SDS011;35952;52.524;13.340;2024-03-07T11:52:36;16.73;;;13.90;;
50066;SDS011;35952;52.524;13.340;2024-03-07T11:55:07;21.83;;;14.43;;
50066;SDS011;35952;52.524;13.340;2024-03-07T11:57:33;25.37;;;15.87;;
50066;SDS011;35952;52.524;13.340;2024-03-07T11:59:59;17.07;;;13.50;;
50066;SDS011;35952;52.524;13.340;2024-03-07T12:02:33;16.47;;;14.50;;
50066;SDS011;35952;52.524;13.340;2024-03-07T12:04:59;17.57;;;13.23;;
50066;SDS011;35952;52.524;13.340;2024-03-07T12:07:25;17.93;;;15.00;;
50066;SDS011;35952;52.524;13.340;2024-03-07T12:09:51;17.47;;;14.17;;
50066;SDS011;35952;52.524;13.340;2024-03-07T12:12:20;20.80;;;14.97;;
50066;SDS011;35952;52.524;13.340;2024-03-07T12:14:47;22.93;;;14.57;;
50066;SDS011;35952;52.524;13.340;2024-03-07T12:17:13;18.13;;;14.00;;
50066;SDS011;35952;52.524;13.340;2024-03-07T12:19:41;24.30;;;16.00;;
50066;SDS011;35952;52.524;13.340;2024-03-07T12:22:10;20.00;;;15.20;;
50066;SDS011;35952;52.524;13.340;2024-03-07T12:24:40;24.30;;;15.37;;
50066;SDS011;35952;52.524;13.340;2024-03-07T12:27:07;22.57;;;14.70;;
50066;SDS011;35952;52.524;13.340;2024-03-07T12:29:34;15.97;;;13.80;;
50066;SDS011;35952;52.524;13.340;2024-03-07T12:32:03;18.97;;;14.60;;
50066;SDS011;35952;52.524;13.340;2024-03-07T12:34:38;19.67;;;14.30;;
50066;SDS011;35952;52.524;13.340;2024-03-07T12:37:10;17.60;;;14.57;;
50066;SDS011;35952;52.524;13.340;2024-03-07T12:39:41;16.50;;;14.67;;
50066;SDS011;35952;52.524;13.340;2024-03-07T12:42:14;21.33;;;16.27;;
50066;SDS011;35952;52.524;13.340;2024-03-07T12:44:42;18.27;;;14.33;;
50066;SDS011;35952;52.524;13.340;2024-03-07T12:47:10;18.27;;;15.00;;
50066;SDS011;35952;52.524;13.340;2024-03-07T12:49:40;20.20;;;16.63;;
50066;SDS011;35952;52.524;13.340;2024-03-07T12:52:06;16.23;;;14.30;;
50066;SDS011;35952;52.524;13.340;2024-03-07T12:54:35;19.20;;;15.70;;
50066;SDS011;35952;52.524;13.340;2024-03-07T12:57:08;18.30;;;16.30;;
50066;SDS011;35952;52.524;13.340;2024-03-07T12:59:39;20.63;;;16.43;;
50066;SDS011;35952;52.524;13.340;2024-03-07T13:02:09;20.80;;;16.07;;
50066;SDS011;35952;52.524;13.340;2024-03-07T13:04:35;23.80;;;17.30;;
50066;SDS011;35952;52.524;13.340;2024-03-07T13:07:04;20.30;;;16.93;;
50066;SDS011;35952;52.524;13.340;2024-03-07T13:09:35;23.80;;;16.97;;
50066;SDS011;35952;52.524;13.340;2024-03-07T13:12:02;22.47;;;18.07;;
50066;SDS011;35952;52.524;13.340;2024-03-07T13:14:29;25.17;;;16.87;;
50066;SDS011;35952;52.524;13.340;2024-03-07T13:16:57;21.33;;;15.47;;
50066;SDS011;35952;52.524;13.340;2024-03-07T13:19:27;23.57;;;17.20;;
50066;SDS011;35952;52.524;13.340;2024-03-07T13:21:53;23.30;;;17.57;;
50066;SDS011;35952;52.524;13.340;2024-03-07T13:24:20;30.93;;;19.00;;
50066;SDS011;35952;52.524;13.340;2024-03-07T13:26:46;26.30;;;19.90;;
50066;SDS011;35952;52.524;13.340;2024-03-07T13:29:15;26.00;;;17.37;;
50066;SDS011;35952;52.524;13.340;2024-03-07T13:31:42;21.00;;;16.43;;
50066;SDS011;35952;52.524;13.340;2024-03-07T13:34:09;24.37;;;18.70;;
50066;SDS011;35952;52.524;13.340;2024-03-07T13:36:39;34.83;;;17.67;;
50066;SDS011;35952;52.524;13.340;2024-03-07T13:39:05;24.77;;;16.07;;
50066;SDS011;35952;52.524;13.340;2024-03-07T13:41:36;24.53;;;17.43;;
50066;SDS011;35952;52.524;13.340;2024-03-07T13:44:02;21.70;;;15.47;;
50066;SDS011;35952;52.524;13.340;2024-03-07T13:46:27;18.93;;;14.70;;
50066;SDS011;35952;52.524;13.340;2024-03-07T13:48:54;19.13;;;15.37;;
50066;SDS011;35952;52.524;13.340;2024-03-07T13:51:25;19.47;;;16.50;;
50066;SDS011;35952;52.524;13.340;2024-03-07T13:53:52;21.07;;;16.53;;
50066;SDS011;35952;52.524;13.340;2024-03-07T13:59:16;20.23;;;17.00;;
50066;SDS011;35952;52.524;13.340;2024-03-07T14:05:24;20.73;;;17.13;;
50066;SDS011;35952;52.524;13.340;2024-03-07T14:08:40;21.00;;;15.77;;
50066;SDS011;35952;52.524;13.340;2024-03-07T14:17:32;22.57;;;16.60;;
50066;SDS011;35952;52.524;13.340;2024-03-07T14:23:19;24.10;;;18.93;;
50066;SDS011;35952;52.524;13.340;2024-03-07T14:32:05;24.13;;;17.83;;
50066;SDS011;35952;52.524;13.340;2024-03-07T14:34:54;23.30;;;18.80;;
50066;SDS011;35952;52.524;13.340;2024-03-07T14:37:49;21.43;;;16.50;;
50066;SDS011;35952;52.524;13.340;2024-03-07T14:40:17;22.57;;;17.47;;
50066;SDS011;35952;52.524;13.340;2024-03-07T14:42:44;22.80;;;18.00;;